Aviation Digital Data Service (ADDS)

Output produced by METARs form (0705 UTC 30 March 2015)
found at http://aviationweather.gov/adds/metars/
 
KDAG 300650Z AUTO 27010KT 10SM CLR 21/01 A3002 RMK AO2 SLP145 T02110011
KDAG 300523Z 3006/3106 25014KT P6SM FEW250 
     FM301600 29010KT P6SM SCT250 
     FM302000 04006KT P6SM SCT250 
     FM310300 26008KT P6SM SCT250
       
KEDW 300558Z AUTO 21008KT 10SM CLR 17/05 A3003 RMK AO2 SLP154 T01740048 10304 20173 51014
KVCV 300655Z AUTO 00000KT 10SM CLR 16/M02 A3009 RMK AO2
KONT 300653Z 25003KT 10SM CLR 18/09 A3003 RMK AO2 SLP157 T01780094
KONT 300520Z 3006/3112 VRB05KT P6SM FEW250 
     FM302100 26011KT P6SM SCT250 
     FM310400 VRB05KT P6SM SKC 
     FM311100 VRB05KT 3SM BR SCT008
       
KNID 300656Z AUTO 20009KT 10SM CLR 17/00 A3001 RMK AO2 SLP147 T01720000 $
KSNA 300653Z AUTO 19003KT 9SM OVC011 16/14 A3003 RMK AO2 SLP166 T01610139 TSNO $
KSNA 300520Z 3006/3106 VRB03KT P6SM BKN010 
     FM301500 VRB03KT P6SM FEW015 
     FM301900 22009KT P6SM SKC 
     FM310300 VRB05KT P6SM FEW010
       
KSAN 300651Z 00000KT 10SM FEW011 SCT250 18/14 A3004 RMK AO2 SLP171 T01780139
KSAN 300559Z 3006/3112 VRB04KT P6SM SCT010 
     FM300800 VRB03KT P6SM OVC010 
     FM301530 VRB03KT P6SM FEW010 SCT200 
     FM301900 28009KT P6SM SCT200 
     FM310200 VRB05KT P6SM FEW010 
     FM310500 VRB05KT P6SM BKN010
       
KNXP 300656Z AUTO 26007KT 10SM CLR 21/M02 A3008 RMK AO2 SLP154 T02111022
TAF KNXP 3003/3103 VRB06KT 9999 SKC QNH2996INS 
     TEMPO 3003/3007 20010KT AUTOMATED SENSOR METWATCH 3003 TIL 3014 T15/3014Z T31/3023Z
       
KPSP 300653Z AUTO 25003KT 10SM CLR 24/04 A2995 RMK AO2 SLP137 T02440039 TSNO
KPSP 300520Z 3006/3106 VRB05KT P6SM FEW250 
     FM302000 13010KT P6SM SKC 
     FM310200 32011KT P6SM SKC
       
KLAX 300653Z 25003KT 9SM BKN008 16/14 A3003 RMK AO2 SLP167 T01560144
KLAX 300525Z 3006/3112 28007KT 6SM BR BKN008 
     FM300900 VRB03KT 1/2SM FG VV001 
     FM301500 VRB05KT 2SM BR BKN003 
     FM301630 25006KT 4SM BR SCT004 
     FM301900 26012KT P6SM SKC 
     FM310400 26006KT P6SM SKC 
     FM310800 VRB05KT 5SM BR BKN008
       
KCNO 300653Z 00000KT 8SM CLR 16/09 A3004 RMK AO2 SLP168 T01560094
KSMO 300651Z AUTO 17003KT 9SM OVC007 17/14 A3003 RMK AO2 SLP168 T01670144 $
KLGB 300653Z 35004KT 9SM CLR 16/14 A3003 RMK AO2 SLP168 T01610139
KLGB 300525Z 3006/3106 VRB05KT P6SM FEW008 SCT250 
     FM300800 VRB03KT 2SM BR BKN002 
     FM301100 VRB03KT 1/2SM FG VV002 
     FM301500 VRB03KT 2SM BR BKN003 
     FM301600 VRB03KT P6SM SKC 
     FM302000 19007KT P6SM SKC 
     FM310100 VRB05KT P6SM SKC
       
KVNY 300651Z AUTO 16005KT 10SM CLR 16/08 A3002 RMK AO2 SLP158 T01610078
KVNY 300525Z 3006/3106 VRB05KT P6SM SCT250 
     FM302100 15008KT P6SM SKC 
     FM310300 VRB05KT P6SM SKC
       
KBUR 300653Z 11004KT 10SM CLR 17/13 A3002 RMK AO2 SLP155 T01720128
KBUR 300525Z 3006/3106 VRB05KT P6SM SCT250 
     FM302000 17008KT P6SM SKC 
     FM310400 VRB05KT P6SM SKC
       
KBFL 300654Z AUTO 06004KT 10SM CLR 18/02 A3002 RMK AO2 SLP161 T01780017
KBFL 300521Z 3006/3106 VRB04KT P6SM SKC 
     FM302100 31009KT P6SM SKC 
     FM310300 VRB04KT P6SM SKC
       
KPMD 300653Z AUTO 22008KT 10SM CLR 15/01 A3007 RMK AO2 SLP162 T01500006
KPMD 300525Z 3006/3106 28007KT P6SM SKC 
     FM300800 VRB05KT P6SM SKC 
     FM302100 27008KT P6SM SKC
       
KOXR 300651Z AUTO 18003KT 6SM BR CLR 14/12 A3001 RMK AO2 SLP161 T01390117
KOXR 300622Z 3006/3106 VRB03KT 3SM BR SCT002 
     TEMPO 3007/3011 1/4SM FG VV002 
     FM301100 VRB05KT 1/4SM FG VV001 
     FM301500 VRB03KT 2SM BR BKN003 
     FM301700 25007KT 4SM HZ SCT005 
     FM301900 25012KT P6SM SKC 
     FM310200 VRB05KT 4SM BR SCT004
       
KWJF 300656Z AUTO 26011KT 10SM CLR 17/01 A3006 RMK AO2 SLP166 T01670006
KWJF 300525Z 3006/3106 25011KT P6SM SKC 
     FM300800 VRB05KT P6SM SKC 
     FM302100 27010KT P6SM SKC
       
KCMA 300702Z AUTO 00000KT 3SM BR BKN002 12/11 A3001 RMK AO2 T01220106
KFAT 300653Z 21003KT 10SM CLR 21/06 A3001 RMK AO2 SLP158 T02060056
KFAT 300521Z 3006/3106 VRB04KT P6SM SKC
       
KEED 300656Z AUTO 00000KT 10SM CLR 23/M06 A2994 RMK AO2 SLP111 T02281061
KEED 300523Z 3006/3106 26010KT P6SM SCT250 
     FM301300 VRB04KT P6SM SCT250 
     FM302000 18008KT P6SM SCT250 
     FM310300 26007KT P6SM SCT250
       
KLSV 300648Z AUTO 01004KT 10SM CLR 19/M06 A2998 RMK AO2
TAF KLSV 3001/3107 VRB06KT 9999 SKC QNH2992INS 
     BECMG 3017/3018 05009KT 9999 SKC QNH2998INS 
     BECMG 3102/3103 VRB06KT 9999 SKC QNH2996INS TX32/3023Z TN12/3013Z
       
KLAS 300656Z 20008KT 10SM SCT250 23/M07 A2997 RMK AO2 SLP127 T02281067
KLAS 300523Z 3006/3106 21008KT P6SM FEW250 
     FM301600 VRB05KT P6SM SCT250 
     FM302000 15006KT P6SM SCT250 
     FM310300 21007KT P6SM SCT250
       
KHII 300655Z AUTO 00000KT 10SM CLR 25/M06 A2993 RMK AO2
KIFP 300655Z AUTO 06003KT 10SM CLR 24/M08 A2994 RMK AO2 PWINO